Wetterdaten: Woche 08.12.08 - 14.12.08 (KW50)
Datum Zeit Temperatur Luftfeuchte Luftdruck Niederschlag Wind Richtung Sonnenschein Solar Taupunkt Windchill Windben
08.12.2008 00:00 -0.9 C 96 % 1029.4 hPa 0.0 l/m 1.0 km/h (0 Bft) O 0.00 h 0 W/m -1.4 C -0.9 C 1.9 km/h (1 Bft)
08.12.2008 01:00 -1.5 C 97 % 1029.2 hPa 0.0 l/m 0.6 km/h (0 Bft) O 0.00 h 0 W/m -1.9 C -1.5 C 1.3 km/h (1 Bft)
08.12.2008 02:00 -1.7 C 97 % 1029.3 hPa 0.0 l/m 0.1 km/h (0 Bft) O 0.00 h 0 W/m -2.0 C -1.7 C 0.3 km/h (0 Bft)
08.12.2008 03:00 -1.1 C 98 % 1029.4 hPa 0.0 l/m 0.1 km/h (0 Bft) O 0.00 h 0 W/m -1.4 C -1.1 C 0.6 km/h (0 Bft)
08.12.2008 04:00 -0.6 C 98 % 1029.2 hPa 0.0 l/m 0.3 km/h (0 Bft) O 0.00 h 0 W/m -0.9 C -0.6 C 1.2 km/h (1 Bft)
08.12.2008 05:00 -0.4 C 98 % 1029.1 hPa 0.0 l/m 0.2 km/h (0 Bft) O 0.00 h 0 W/m -0.7 C -0.4 C 0.6 km/h (0 Bft)
08.12.2008 06:00 -0.1 C 99 % 1029.2 hPa 0.0 l/m 0.0 km/h (0 Bft) N 0.00 h 0 W/m -0.2 C -0.1 C 0.2 km/h (0 Bft)
08.12.2008 07:00 0.1 C 99 % 1029.1 hPa 0.0 l/m 0.1 km/h (0 Bft) O 0.00 h 0 W/m -0.0 C 0.1 C 0.3 km/h (0 Bft)
08.12.2008 08:00 0.3 C 99 % 1029.1 hPa 0.0 l/m 0.3 km/h (0 Bft) O 0.00 h 17 W/m 0.2 C 0.3 C 0.6 km/h (0 Bft)
08.12.2008 09:00 0.7 C 99 % 1029.2 hPa 0.2 l/m 0.0 km/h (0 Bft) O 0.00 h 60 W/m 0.6 C 0.7 C 0.3 km/h (0 Bft)
08.12.2008 10:00 1.9 C 99 % 1029.0 hPa 0.0 l/m 0.8 km/h (0 Bft) SO 0.00 h 104 W/m 1.7 C 1.7 C 1.5 km/h (1 Bft)
08.12.2008 11:00 2.2 C 89 % 1028.9 hPa 0.0 l/m 5.5 km/h (1 Bft) SO 0.02 h 136 W/m 0.6 C 0.9 C 8.3 km/h (2 Bft)
08.12.2008 12:00 1.8 C 84 % 1028.3 hPa 0.0 l/m 3.0 km/h (1 Bft) O-SO 0.00 h 60 W/m -0.6 C 1.4 C 5.2 km/h (1 Bft)
08.12.2008 13:00 2.2 C 84 % 1027.3 hPa 0.0 l/m 0.5 km/h (0 Bft) O-NO 0.05 h 91 W/m -0.2 C 2.2 C 1.6 km/h (1 Bft)
08.12.2008 14:00 3.3 C 79 % 1026.2 hPa 0.0 l/m 1.1 km/h (1 Bft) NW 0.78 h 176 W/m 0.1 C 3.3 C 3.0 km/h (1 Bft)
08.12.2008 15:00 3.1 C 80 % 1025.6 hPa 0.0 l/m 0.9 km/h (0 Bft) SO 0.47 h 85 W/m -0.1 C 3.1 C 2.6 km/h (1 Bft)
08.12.2008 16:00 2.1 C 83 % 1025.6 hPa 0.0 l/m 1.8 km/h (1 Bft) S-SO 0.08 h 12 W/m -0.5 C 2.0 C 4.0 km/h (1 Bft)
08.12.2008 17:00 0.9 C 86 % 1025.6 hPa 0.0 l/m 2.2 km/h (1 Bft) S-SO 0.00 h 0 W/m -1.2 C 0.9 C 4.2 km/h (1 Bft)
08.12.2008 18:00 -0.2 C 89 % 1025.7 hPa 0.0 l/m 3.1 km/h (1 Bft) SO 0.00 h 0 W/m -1.7 C -0.6 C 5.3 km/h (1 Bft)
08.12.2008 19:00 -1.0 C 92 % 1025.7 hPa 0.0 l/m 1.1 km/h (1 Bft) S-SO 0.00 h 0 W/m -2.2 C -1.2 C 2.6 km/h (1 Bft)
08.12.2008 20:00 -1.0 C 94 % 1025.5 hPa 0.0 l/m 0.7 km/h (0 Bft) S-SO 0.00 h 0 W/m -1.9 C -1.0 C 1.7 km/h (1 Bft)
08.12.2008 21:00 -1.0 C 95 % 1024.9 hPa 0.0 l/m 0.7 km/h (0 Bft) S-SO 0.00 h 0 W/m -1.8 C -1.0 C 1.8 km/h (1 Bft)
08.12.2008 22:00 -0.6 C 95 % 1024.3 hPa 0.0 l/m 1.4 km/h (1 Bft) S 0.00 h 0 W/m -1.3 C -0.7 C 3.5 km/h (1 Bft)
08.12.2008 23:00 -0.4 C 94 % 1023.9 hPa 0.0 l/m 0.2 km/h (0 Bft) SW 0.00 h 0 W/m -1.2 C -0.4 C 0.9 km/h (0 Bft)
09.12.2008 00:00 -0.5 C 93 % 1023.3 hPa 0.0 l/m 1.5 km/h (1 Bft) S 0.00 h 0 W/m -1.4 C -0.6 C 3.5 km/h (1 Bft)
09.12.2008 01:00 -0.4 C 93 % 1022.8 hPa 0.0 l/m 1.3 km/h (1 Bft) SO 0.00 h 0 W/m -1.5 C -0.5 C 3.0 km/h (1 Bft)
09.12.2008 02:00 -0.4 C 91 % 1022.1 hPa 0.0 l/m 1.3 km/h (1 Bft) S-SO 0.00 h 0 W/m -1.7 C -0.5 C 3.3 km/h (1 Bft)
09.12.2008 03:00 -0.4 C 90 % 1021.7 hPa 0.0 l/m 0.8 km/h (0 Bft) S-SO 0.00 h 0 W/m -1.8 C -0.5 C 2.4 km/h (1 Bft)
09.12.2008 04:00 -0.5 C 90 % 1021.5 hPa 0.0 l/m 1.3 km/h (1 Bft) SO 0.00 h 0 W/m -1.9 C -0.6 C 3.5 km/h (1 Bft)
09.12.2008 05:00 -0.6 C 89 % 1021.4 hPa 0.0 l/m 2.4 km/h (1 Bft) SO 0.00 h 0 W/m -2.1 C -0.9 C 4.8 km/h (1 Bft)
09.12.2008 06:00 -0.6 C 90 % 1021.5 hPa 0.0 l/m 2.2 km/h (1 Bft) S-SO 0.00 h 0 W/m -2.0 C -0.9 C 4.4 km/h (1 Bft)
09.12.2008 07:00 -0.5 C 90 % 1021.5 hPa 0.0 l/m 3.2 km/h (1 Bft) SO 0.00 h 0 W/m -2.0 C -1.0 C 6.2 km/h (2 Bft)
09.12.2008 08:00 -0.4 C 90 % 1021.4 hPa 0.0 l/m 4.2 km/h (1 Bft) S-SO 0.00 h 12 W/m -1.8 C -1.5 C 6.9 km/h (2 Bft)
09.12.2008 09:00 -0.4 C 90 % 1021.2 hPa 0.0 l/m 3.4 km/h (1 Bft) SO 0.00 h 31 W/m -1.9 C -1.2 C 5.8 km/h (2 Bft)
09.12.2008 10:00 -0.1 C 89 % 1020.8 hPa 0.0 l/m 1.7 km/h (1 Bft) SO 0.00 h 64 W/m -1.7 C -0.1 C 4.0 km/h (1 Bft)
09.12.2008 11:00 0.4 C 87 % 1020.1 hPa 0.0 l/m 2.3 km/h (1 Bft) S-SO 0.00 h 78 W/m -1.5 C 0.1 C 4.8 km/h (1 Bft)
09.12.2008 12:00 1.2 C 85 % 1018.9 hPa 0.0 l/m 2.8 km/h (1 Bft) S-SO 0.00 h 103 W/m -1.0 C 0.9 C 6.0 km/h (2 Bft)
09.12.2008 13:00 2.9 C 79 % 1017.8 hPa 0.0 l/m 3.3 km/h (1 Bft) S 0.97 h 244 W/m -0.4 C 2.5 C 6.7 km/h (2 Bft)
09.12.2008 14:00 3.8 C 76 % 1017.0 hPa 0.0 l/m 3.4 km/h (1 Bft) SW 0.90 h 175 W/m -0.1 C 3.4 C 6.4 km/h (2 Bft)
09.12.2008 15:00 3.1 C 80 % 1016.2 hPa 0.0 l/m 1.3 km/h (1 Bft) S-SO 0.18 h 47 W/m -0.1 C 3.1 C 3.3 km/h (1 Bft)
09.12.2008 16:00 2.3 C 83 % 1015.7 hPa 0.0 l/m 0.1 km/h (0 Bft) S-SW 0.00 h 11 W/m -0.3 C 2.3 C 0.5 km/h (0 Bft)
09.12.2008 17:00 2.0 C 83 % 1015.2 hPa 0.0 l/m 0.1 km/h (0 Bft) O-SO 0.00 h 0 W/m -0.6 C 2.0 C 0.6 km/h (0 Bft)
09.12.2008 18:00 1.6 C 84 % 1014.7 hPa 0.0 l/m 0.2 km/h (0 Bft) O-SO 0.00 h 0 W/m -0.7 C 1.6 C 0.8 km/h (0 Bft)
09.12.2008 19:00 1.3 C 86 % 1014.8 hPa 0.0 l/m 0.3 km/h (0 Bft) S-SW 0.00 h 0 W/m -0.7 C 1.3 C 1.2 km/h (1 Bft)
09.12.2008 20:00 1.1 C 89 % 1014.9 hPa 0.4 l/m 0.2 km/h (0 Bft) SO 0.00 h 0 W/m -0.6 C 1.1 C 0.4 km/h (0 Bft)
09.12.2008 21:00 0.8 C 91 % 1015.0 hPa 1.0 l/m 0.5 km/h (0 Bft) S-SO 0.00 h 0 W/m -0.4 C 0.8 C 1.8 km/h (1 Bft)
09.12.2008 22:00 0.7 C 93 % 1015.2 hPa 0.8 l/m 0.0 km/h (0 Bft) N 0.00 h 0 W/m -0.3 C 0.7 C 0.3 km/h (0 Bft)
09.12.2008 23:00 0.5 C 94 % 1014.7 hPa 0.8 l/m 0.0 km/h (0 Bft) N 0.00 h 0 W/m -0.3 C 0.5 C 0.0 km/h (0 Bft)
10.12.2008 00:00 0.5 C 95 % 1014.4 hPa 0.4 l/m 0.0 km/h (0 Bft) N 0.00 h 0 W/m -0.1 C 0.5 C 0.0 km/h (0 Bft)
10.12.2008 01:00 0.6 C 96 % 1013.9 hPa 0.0 l/m 0.0 km/h (0 Bft) S-SO 0.00 h 0 W/m 0.0 C 0.6 C 0.2 km/h (0 Bft)
10.12.2008 02:00 0.7 C 97 % 1013.7 hPa 0.2 l/m 0.1 km/h (0 Bft) S-SO 0.00 h 0 W/m 0.3 C 0.7 C 0.7 km/h (0 Bft)
10.12.2008 03:00 0.8 C 97 % 1013.4 hPa 0.2 l/m 0.1 km/h (0 Bft) S-SO 0.00 h 0 W/m 0.4 C 0.8 C 0.8 km/h (0 Bft)
10.12.2008 04:00 0.7 C 97 % 1013.2 hPa 0.2 l/m 0.3 km/h (0 Bft) S-SO 0.00 h 0 W/m 0.3 C 0.7 C 0.8 km/h (0 Bft)
10.12.2008 05:00 0.5 C 97 % 1013.0 hPa 0.6 l/m 0.0 km/h (0 Bft) N 0.00 h 0 W/m 0.0 C 0.5 C 0.1 km/h (0 Bft)
10.12.2008 06:00 0.4 C 97 % 1013.0 hPa 0.4 l/m 0.0 km/h (0 Bft) N 0.00 h 0 W/m -0.0 C 0.4 C 0.1 km/h (0 Bft)
10.12.2008 07:00 0.4 C 97 % 1013.1 hPa 0.4 l/m 0.7 km/h (0 Bft) NO 0.00 h 0 W/m -0.0 C 0.4 C 2.3 km/h (1 Bft)
10.12.2008 08:00 0.4 C 98 % 1013.1 hPa 0.2 l/m 0.5 km/h (0 Bft) NO 0.00 h 9 W/m 0.1 C 0.4 C 1.8 km/h (1 Bft)
10.12.2008 09:00 0.6 C 98 % 1013.0 hPa 0.4 l/m 1.9 km/h (1 Bft) N 0.00 h 40 W/m 0.3 C 0.5 C 4.1 km/h (1 Bft)
10.12.2008 10:00 1.1 C 98 % 1012.6 hPa 0.2 l/m 1.1 km/h (1 Bft) N 0.00 h 74 W/m 0.8 C 1.0 C 2.5 km/h (1 Bft)
10.12.2008 11:00 1.3 C 98 % 1012.0 hPa 0.0 l/m 1.2 km/h (1 Bft) N 0.00 h 49 W/m 1.0 C 1.3 C 2.9 km/h (1 Bft)
10.12.2008 12:00 1.2 C 98 % 1011.2 hPa 0.4 l/m 1.1 km/h (1 Bft) N-NW 0.00 h 35 W/m 0.9 C 1.2 C 3.2 km/h (1 Bft)
10.12.2008 13:00 0.7 C 98 % 1010.9 hPa 0.8 l/m 1.4 km/h (1 Bft) NW 0.00 h 22 W/m 0.4 C 0.7 C 3.0 km/h (1 Bft)
10.12.2008 14:00 0.5 C 98 % 1010.7 hPa 0.8 l/m 0.3 km/h (0 Bft) N-NW 0.00 h 8 W/m 0.2 C 0.5 C 1.1 km/h (1 Bft)
10.12.2008 15:00 0.5 C 98 % 1010.8 hPa 0.8 l/m 0.0 km/h (0 Bft) N 0.00 h 5 W/m 0.2 C 0.5 C 0.0 km/h (0 Bft)
10.12.2008 16:00 0.4 C 98 % 1010.5 hPa 1.4 l/m 0.0 km/h (0 Bft) N 0.00 h 0 W/m 0.1 C 0.4 C 0.0 km/h (0 Bft)
10.12.2008 17:00 0.4 C 98 % 1010.8 hPa 0.8 l/m 0.1 km/h (0 Bft) N-NW 0.00 h 0 W/m 0.1 C 0.4 C 0.5 km/h (0 Bft)
10.12.2008 18:00 0.3 C 98 % 1010.6 hPa 0.8 l/m 0.0 km/h (0 Bft) N 0.00 h 0 W/m 0.0 C 0.3 C 0.1 km/h (0 Bft)
10.12.2008 19:00 0.3 C 98 % 1010.6 hPa 0.4 l/m 0.0 km/h (0 Bft) N 0.00 h 0 W/m 0.0 C 0.3 C 0.0 km/h (0 Bft)
10.12.2008 20:00 0.3 C 98 % 1010.8 hPa 0.4 l/m 0.0 km/h (0 Bft) N 0.00 h 0 W/m 0.0 C 0.3 C 0.0 km/h (0 Bft)
10.12.2008 21:00 0.3 C 98 % 1010.8 hPa 0.2 l/m 0.0 km/h (0 Bft) N 0.00 h 0 W/m 0.0 C 0.3 C 0.0 km/h (0 Bft)
10.12.2008 22:00 0.3 C 98 % 1010.8 hPa 0.6 l/m 0.0 km/h (0 Bft) N 0.00 h 0 W/m 0.0 C 0.3 C 0.0 km/h (0 Bft)
10.12.2008 23:00 0.2 C 98 % 1010.8 hPa 0.4 l/m 0.0 km/h (0 Bft) N 0.00 h 0 W/m -0.1 C 0.2 C 0.0 km/h (0 Bft)
11.12.2008 00:00 0.2 C 98 % 1010.8 hPa 0.6 l/m 0.0 km/h (0 Bft) N 0.00 h 0 W/m -0.1 C 0.2 C 0.0 km/h (0 Bft)
11.12.2008 01:00 0.2 C 99 % 1010.5 hPa 0.4 l/m 0.0 km/h (0 Bft) N 0.00 h 0 W/m -0.0 C 0.2 C 0.0 km/h (0 Bft)
11.12.2008 02:00 0.2 C 99 % 1010.6 hPa 0.2 l/m 0.0 km/h (0 Bft) N 0.00 h 0 W/m 0.1 C 0.2 C 0.0 km/h (0 Bft)
11.12.2008 03:00 0.1 C 99 % 1010.2 hPa 0.0 l/m 0.0 km/h (0 Bft) N 0.00 h 0 W/m 0.0 C 0.1 C 0.0 km/h (0 Bft)
11.12.2008 04:00 0.1 C 99 % 1009.8 hPa 0.0 l/m 0.0 km/h (0 Bft) N 0.00 h 0 W/m -0.0 C 0.1 C 0.0 km/h (0 Bft)
11.12.2008 05:00 0.1 C 99 % 1009.7 hPa 0.2 l/m 0.0 km/h (0 Bft) N 0.00 h 0 W/m -0.0 C 0.1 C 0.0 km/h (0 Bft)
11.12.2008 06:00 0.1 C 99 % 1010.0 hPa 0.4 l/m 0.0 km/h (0 Bft) N 0.00 h 0 W/m -0.0 C 0.1 C 0.0 km/h (0 Bft)
11.12.2008 07:00 0.1 C 99 % 1010.2 hPa 0.2 l/m 0.0 km/h (0 Bft) N 0.00 h 0 W/m -0.0 C 0.1 C 0.0 km/h (0 Bft)
11.12.2008 08:00 0.1 C 99 % 1010.4 hPa 0.0 l/m 0.0 km/h (0 Bft) N 0.00 h 5 W/m -0.0 C 0.1 C 0.0 km/h (0 Bft)
11.12.2008 09:00 0.3 C 99 % 1010.5 hPa 0.2 l/m 0.0 km/h (0 Bft) N 0.00 h 8 W/m 0.1 C 0.3 C 0.0 km/h (0 Bft)
11.12.2008 10:00 0.5 C 99 % 1011.0 hPa 0.4 l/m 0.0 km/h (0 Bft) N 0.00 h 13 W/m 0.3 C 0.5 C 0.0 km/h (0 Bft)
11.12.2008 11:00 0.7 C 99 % 1011.0 hPa 0.4 l/m 0.2 km/h (0 Bft) N-NW 0.00 h 25 W/m 0.6 C 0.7 C 0.6 km/h (0 Bft)
11.12.2008 12:00 1.3 C 99 % 1011.2 hPa 0.2 l/m 0.2 km/h (0 Bft) N-NW 0.00 h 106 W/m 1.2 C 1.3 C 1.2 km/h (1 Bft)
11.12.2008 13:00 1.7 C 99 % 1011.3 hPa 0.0 l/m 0.1 km/h (0 Bft) N-NW 0.00 h 90 W/m 1.5 C 1.7 C 0.5 km/h (0 Bft)
11.12.2008 14:00 1.5 C 98 % 1011.2 hPa 0.0 l/m 0.5 km/h (0 Bft) N-NW 0.00 h 50 W/m 1.3 C 1.5 C 1.6 km/h (1 Bft)
11.12.2008 15:00 1.0 C 98 % 1011.3 hPa 0.0 l/m 0.1 km/h (0 Bft) N-NW 0.00 h 24 W/m 0.7 C 1.0 C 1.3 km/h (1 Bft)
11.12.2008 16:00 0.7 C 98 % 1011.6 hPa 0.0 l/m 0.2 km/h (0 Bft) N-NW 0.00 h 6 W/m 0.4 C 0.7 C 0.9 km/h (0 Bft)
11.12.2008 17:00 0.4 C 98 % 1012.1 hPa 0.2 l/m 0.1 km/h (0 Bft) N-NW 0.00 h 0 W/m 0.1 C 0.4 C 0.8 km/h (0 Bft)
11.12.2008 18:00 0.3 C 98 % 1012.5 hPa 0.0 l/m 0.2 km/h (0 Bft) N-NW 0.00 h 0 W/m -0.0 C 0.3 C 0.5 km/h (0 Bft)
11.12.2008 19:00 0.1 C 98 % 1013.1 hPa 0.0 l/m 0.0 km/h (0 Bft) N 0.00 h 0 W/m -0.1 C 0.1 C 0.0 km/h (0 Bft)
11.12.2008 20:00 0.2 C 98 % 1013.2 hPa 0.0 l/m 0.0 km/h (0 Bft) N 0.00 h 0 W/m -0.1 C 0.2 C 0.1 km/h (0 Bft)
11.12.2008 21:00 0.3 C 98 % 1013.2 hPa 0.0 l/m 0.1 km/h (0 Bft) N-NW 0.00 h 0 W/m -0.0 C 0.3 C 0.5 km/h (0 Bft)
11.12.2008 22:00 0.2 C 98 % 1013.4 hPa 0.0 l/m 0.6 km/h (0 Bft) O 0.00 h 0 W/m -0.1 C 0.2 C 1.4 km/h (1 Bft)
11.12.2008 23:00 0.2 C 98 % 1014.0 hPa 0.0 l/m 0.3 km/h (0 Bft) O 0.00 h 0 W/m -0.1 C 0.2 C 1.4 km/h (1 Bft)
12.12.2008 00:00 0.1 C 98 % 1014.3 hPa 0.0 l/m 0.4 km/h (0 Bft) N-NW 0.00 h 0 W/m -0.2 C 0.1 C 1.3 km/h (1 Bft)
12.12.2008 01:00 0.1 C 98 % 1014.4 hPa 0.0 l/m 0.7 km/h (0 Bft) N-NW 0.00 h 0 W/m -0.2 C 0.1 C 1.9 km/h (1 Bft)
12.12.2008 02:00 0.1 C 98 % 1015.0 hPa 0.0 l/m 1.0 km/h (0 Bft) N-NW 0.00 h 0 W/m -0.2 C 0.1 C 2.8 km/h (1 Bft)
12.12.2008 03:00 0.1 C 98 % 1015.4 hPa 0.0 l/m 0.1 km/h (0 Bft) NW 0.00 h 0 W/m -0.2 C 0.1 C 0.4 km/h (0 Bft)
12.12.2008 04:00 -0.0 C 98 % 1015.8 hPa 0.4 l/m 0.0 km/h (0 Bft) NW 0.00 h 0 W/m -0.3 C -0.0 C 0.2 km/h (0 Bft)
12.12.2008 05:00 -0.1 C 99 % 1016.1 hPa 0.0 l/m 0.0 km/h (0 Bft) N 0.00 h 0 W/m -0.3 C -0.1 C 0.2 km/h (0 Bft)
12.12.2008 06:00 -0.1 C 99 % 1016.5 hPa 0.0 l/m 0.0 km/h (0 Bft) N 0.00 h 0 W/m -0.3 C -0.1 C 0.1 km/h (0 Bft)
12.12.2008 07:00 -0.3 C 98 % 1017.0 hPa 0.0 l/m 0.0 km/h (0 Bft) N 0.00 h 0 W/m -0.5 C -0.3 C 0.0 km/h (0 Bft)
12.12.2008 08:00 -0.7 C 98 % 1017.6 hPa 0.0 l/m 0.1 km/h (0 Bft) N-NW 0.00 h 8 W/m -1.0 C -0.7 C 0.2 km/h (0 Bft)
12.12.2008 09:00 -0.5 C 99 % 1017.9 hPa 0.0 l/m 0.1 km/h (0 Bft) N-NW 0.00 h 26 W/m -0.6 C -0.5 C 0.3 km/h (0 Bft)
12.12.2008 10:00 0.4 C 99 % 1018.4 hPa 0.0 l/m 0.9 km/h (0 Bft) N-NW 0.57 h 144 W/m 0.3 C 0.4 C 1.8 km/h (1 Bft)
12.12.2008 11:00 1.0 C 95 % 1018.1 hPa 0.0 l/m 1.6 km/h (1 Bft) SO 1.00 h 283 W/m 0.2 C 1.0 C 3.1 km/h (1 Bft)
12.12.2008 12:00 1.4 C 90 % 1018.2 hPa 0.0 l/m 1.6 km/h (1 Bft) W 0.70 h 186 W/m -0.1 C 1.3 C 3.2 km/h (1 Bft)
12.12.2008 13:00 1.6 C 85 % 1018.1 hPa 0.0 l/m 0.4 km/h (0 Bft) NO 0.23 h 148 W/m -0.7 C 1.6 C 1.7 km/h (1 Bft)
12.12.2008 14:00 1.7 C 84 % 1018.2 hPa 0.0 l/m 0.1 km/h (0 Bft) NO 0.00 h 92 W/m -0.7 C 1.7 C 0.7 km/h (0 Bft)
12.12.2008 15:00 1.5 C 85 % 1018.5 hPa 0.0 l/m 0.3 km/h (0 Bft) NO 0.25 h 47 W/m -0.8 C 1.5 C 1.0 km/h (0 Bft)
12.12.2008 16:00 1.3 C 86 % 1018.6 hPa 0.0 l/m 0.1 km/h (0 Bft) NO 0.28 h 17 W/m -0.7 C 1.3 C 0.5 km/h (0 Bft)
12.12.2008 17:00 0.9 C 88 % 1018.7 hPa 0.0 l/m 0.5 km/h (0 Bft) NO 0.00 h 0 W/m -0.8 C 0.9 C 1.2 km/h (1 Bft)
12.12.2008 18:00 0.6 C 88 % 1018.5 hPa 0.0 l/m 0.5 km/h (0 Bft) O-NO 0.00 h 0 W/m -1.1 C 0.6 C 1.9 km/h (1 Bft)
12.12.2008 19:00 -0.2 C 88 % 1018.4 hPa 0.0 l/m 0.9 km/h (0 Bft) NO 0.00 h 0 W/m -1.9 C -0.2 C 3.0 km/h (1 Bft)
12.12.2008 20:00 -0.5 C 90 % 1018.2 hPa 0.0 l/m 1.1 km/h (0 Bft) NO 0.00 h 0 W/m -1.9 C -0.5 C 3.1 km/h (1 Bft)
12.12.2008 21:00 -0.6 C 91 % 1018.0 hPa 0.0 l/m 1.3 km/h (1 Bft) N 0.00 h 0 W/m -1.8 C -0.6 C 3.2 km/h (1 Bft)
12.12.2008 22:00 -0.6 C 92 % 1017.2 hPa 0.0 l/m 1.3 km/h (1 Bft) W-NW 0.00 h 0 W/m -1.7 C -0.6 C 2.6 km/h (1 Bft)
12.12.2008 23:00 -0.6 C 93 % 1017.0 hPa 0.0 l/m 0.3 km/h (0 Bft) N-NW 0.00 h 0 W/m -1.6 C -0.6 C 1.0 km/h (0 Bft)
13.12.2008 00:00 -0.6 C 94 % 1016.3 hPa 0.0 l/m 0.0 km/h (0 Bft) N-NW 0.00 h 0 W/m -1.5 C -0.6 C 0.2 km/h (0 Bft)
13.12.2008 01:00 -0.5 C 94 % 1015.7 hPa 0.0 l/m 0.0 km/h (0 Bft) N 0.00 h 0 W/m -1.3 C -0.5 C 0.1 km/h (0 Bft)
13.12.2008 02:00 -0.6 C 94 % 1015.0 hPa 0.0 l/m 0.6 km/h (0 Bft) O 0.00 h 0 W/m -1.5 C -0.7 C 1.6 km/h (1 Bft)
13.12.2008 03:00 -0.7 C 93 % 1014.2 hPa 0.0 l/m 1.1 km/h (0 Bft) N-NO 0.00 h 0 W/m -1.6 C -0.8 C 3.2 km/h (1 Bft)
13.12.2008 04:00 -0.6 C 90 % 1013.4 hPa 0.0 l/m 1.4 km/h (1 Bft) O 0.00 h 0 W/m -1.9 C -0.6 C 4.1 km/h (1 Bft)
13.12.2008 05:00 -0.6 C 88 % 1012.4 hPa 0.0 l/m 0.7 km/h (0 Bft) NO 0.00 h 0 W/m -2.3 C -0.6 C 2.1 km/h (1 Bft)
13.12.2008 06:00 -0.7 C 88 % 1011.9 hPa 0.0 l/m 0.2 km/h (0 Bft) SO 0.00 h 0 W/m -2.3 C -0.7 C 0.5 km/h (0 Bft)
13.12.2008 07:00 -0.9 C 90 % 1011.4 hPa 0.0 l/m 0.3 km/h (0 Bft) SO 0.00 h 0 W/m -2.4 C -0.9 C 0.7 km/h (0 Bft)
13.12.2008 08:00 -1.1 C 91 % 1010.8 hPa 0.0 l/m 0.1 km/h (0 Bft) SO 0.00 h 12 W/m -2.4 C -1.1 C 0.5 km/h (0 Bft)
13.12.2008 09:00 -0.8 C 91 % 1010.0 hPa 0.0 l/m 0.1 km/h (0 Bft) SO 0.00 h 62 W/m -2.2 C -0.8 C 0.5 km/h (0 Bft)
13.12.2008 10:00 -0.4 C 88 % 1009.1 hPa 0.0 l/m 0.5 km/h (0 Bft) SO 0.13 h 112 W/m -2.2 C -0.4 C 1.6 km/h (1 Bft)
13.12.2008 11:00 -0.0 C 86 % 1008.2 hPa 0.0 l/m 0.9 km/h (0 Bft) SO 0.52 h 168 W/m -2.0 C -0.0 C 2.1 km/h (1 Bft)
13.12.2008 12:00 0.8 C 84 % 1006.9 hPa 0.0 l/m 0.3 km/h (0 Bft) W 0.80 h 195 W/m -1.6 C 0.8 C 0.9 km/h (0 Bft)
13.12.2008 13:00 1.1 C 83 % 1005.8 hPa 0.0 l/m 0.4 km/h (0 Bft) S-SW 0.60 h 165 W/m -1.4 C 1.1 C 1.3 km/h (1 Bft)
13.12.2008 14:00 1.0 C 82 % 1004.9 hPa 0.0 l/m 1.3 km/h (1 Bft) O-SO 0.03 h 102 W/m -1.7 C 0.9 C 2.5 km/h (1 Bft)
13.12.2008 15:00 0.6 C 85 % 1004.5 hPa 0.0 l/m 0.3 km/h (0 Bft) O 0.12 h 60 W/m -1.7 C 0.6 C 1.1 km/h (1 Bft)
13.12.2008 16:00 0.6 C 86 % 1004.2 hPa 0.0 l/m 1.0 km/h (0 Bft) O 0.00 h 11 W/m -1.5 C 0.6 C 1.9 km/h (1 Bft)
13.12.2008 17:00 0.2 C 87 % 1003.9 hPa 0.0 l/m 0.5 km/h (0 Bft) O-NO 0.00 h 0 W/m -1.7 C 0.2 C 1.9 km/h (1 Bft)
13.12.2008 18:00 0.0 C 85 % 1003.5 hPa 0.0 l/m 3.1 km/h (1 Bft) O 0.00 h 0 W/m -2.2 C -0.5 C 6.7 km/h (2 Bft)
13.12.2008 19:00 -0.3 C 86 % 1003.1 hPa 0.0 l/m 1.3 km/h (1 Bft) NO 0.00 h 0 W/m -2.4 C -0.5 C 3.5 km/h (1 Bft)
13.12.2008 20:00 -0.2 C 87 % 1002.7 hPa 0.0 l/m 2.1 km/h (1 Bft) N-NO 0.00 h 0 W/m -2.2 C -0.5 C 5.4 km/h (1 Bft)
13.12.2008 21:00 -0.4 C 87 % 1002.5 hPa 0.0 l/m 1.6 km/h (1 Bft) N-NO 0.00 h 0 W/m -2.3 C -0.4 C 4.0 km/h (1 Bft)
13.12.2008 22:00 -0.4 C 88 % 1002.5 hPa 0.0 l/m 1.6 km/h (1 Bft) N 0.00 h 0 W/m -2.2 C -0.6 C 3.5 km/h (1 Bft)
13.12.2008 23:00 -0.6 C 88 % 1002.7 hPa 0.0 l/m 2.3 km/h (1 Bft) N-NW 0.00 h 0 W/m -2.4 C -1.1 C 4.7 km/h (1 Bft)
14.12.2008 00:00 -0.9 C 88 % 1002.3 hPa 0.0 l/m 0.3 km/h (0 Bft) O-SO 0.00 h 0 W/m -2.6 C -0.9 C 1.5 km/h (1 Bft)
14.12.2008 01:00 -1.1 C 90 % 1002.0 hPa 0.0 l/m 0.7 km/h (0 Bft) O-SO 0.00 h 0 W/m -2.6 C -1.2 C 1.6 km/h (1 Bft)
14.12.2008 02:00 -1.4 C 90 % 1001.6 hPa 0.0 l/m 1.0 km/h (0 Bft) O-SO 0.00 h 0 W/m -2.9 C -1.5 C 2.6 km/h (1 Bft)
14.12.2008 03:00 -2.2 C 90 % 1001.1 hPa 0.0 l/m 0.3 km/h (0 Bft) NO 0.00 h 0 W/m -3.6 C -2.2 C 1.5 km/h (1 Bft)
14.12.2008 04:00 -2.5 C 90 % 1000.8 hPa 0.0 l/m 0.5 km/h (0 Bft) N-NW 0.00 h 0 W/m -3.9 C -2.6 C 1.7 km/h (1 Bft)
14.12.2008 05:00 -2.9 C 91 % 1000.8 hPa 0.0 l/m 1.0 km/h (0 Bft) N 0.00 h 0 W/m -4.1 C -3.0 C 2.5 km/h (1 Bft)
14.12.2008 06:00 -3.5 C 91 % 1000.5 hPa 0.0 l/m 0.8 km/h (0 Bft) W-NW 0.00 h 0 W/m -4.7 C -3.5 C 2.1 km/h (1 Bft)
14.12.2008 07:00 -3.7 C 92 % 1000.4 hPa 0.0 l/m 1.0 km/h (0 Bft) W 0.00 h 5 W/m -4.8 C -3.8 C 2.4 km/h (1 Bft)
14.12.2008 08:00 -3.6 C 93 % 1000.4 hPa 0.0 l/m 0.9 km/h (0 Bft) N-NW 0.10 h 18 W/m -4.7 C -3.6 C 2.2 km/h (1 Bft)
14.12.2008 09:00 -3.1 C 93 % 1000.4 hPa 0.0 l/m 0.3 km/h (0 Bft) N-NW 0.00 h 65 W/m -4.1 C -3.1 C 1.0 km/h (0 Bft)
14.12.2008 10:00 -2.0 C 89 % 1000.1 hPa 0.0 l/m 0.8 km/h (0 Bft) W 0.15 h 123 W/m -3.5 C -2.0 C 2.0 km/h (1 Bft)
14.12.2008 11:00 -0.1 C 83 % 999.1 hPa 0.0 l/m 2.5 km/h (1 Bft) O-SO 0.40 h 148 W/m -2.7 C -0.7 C 4.8 km/h (1 Bft)
14.12.2008 12:00 0.8 C 80 % 998.2 hPa 0.0 l/m 4.5 km/h (1 Bft) O-SO 0.40 h 166 W/m -2.2 C -0.5 C 8.0 km/h (2 Bft)
14.12.2008 13:00 1.9 C 78 % 997.4 hPa 0.0 l/m 4.2 km/h (1 Bft) O-SO 0.48 h 160 W/m -1.5 C 1.0 C 7.1 km/h (2 Bft)
14.12.2008 14:00 2.1 C 78 % 997.1 hPa 0.0 l/m 4.0 km/h (1 Bft) O-SO 0.15 h 113 W/m -1.2 C 1.2 C 6.8 km/h (2 Bft)
14.12.2008 15:00 2.1 C 79 % 997.3 hPa 0.0 l/m 1.4 km/h (1 Bft) O 0.00 h 44 W/m -1.1 C 2.0 C 3.5 km/h (1 Bft)
14.12.2008 16:00 1.6 C 82 % 997.6 hPa 0.0 l/m 0.4 km/h (0 Bft) N-NW 0.00 h 10 W/m -1.1 C 1.6 C 1.5 km/h (1 Bft)
14.12.2008 17:00 1.0 C 85 % 998.2 hPa 0.0 l/m 0.5 km/h (0 Bft) O-SO 0.00 h 0 W/m -1.2 C 0.9 C 1.8 km/h (1 Bft)
14.12.2008 18:00 0.2 C 88 % 999.0 hPa 0.0 l/m 0.7 km/h (0 Bft) N 0.00 h 0 W/m -1.5 C 0.2 C 1.6 km/h (1 Bft)
14.12.2008 19:00 -0.4 C 90 % 999.7 hPa 0.0 l/m 0.9 km/h (0 Bft) N 0.00 h 0 W/m -1.8 C -0.5 C 2.5 km/h (1 Bft)
14.12.2008 20:00 -1.0 C 91 % 1000.5 hPa 0.0 l/m 0.3 km/h (0 Bft) N 0.00 h 0 W/m -2.3 C -1.0 C 1.1 km/h (1 Bft)
14.12.2008 21:00 -1.4 C 93 % 1001.1 hPa 0.0 l/m 0.5 km/h (0 Bft) N 0.00 h 0 W/m -2.4 C -1.4 C 1.4 km/h (1 Bft)
14.12.2008 22:00 -1.4 C 94 % 1001.4 hPa 0.0 l/m 0.5 km/h (0 Bft) N 0.00 h 0 W/m -2.3 C -1.4 C 1.4 km/h (1 Bft)
14.12.2008 23:00 -1.4 C 94 % 1001.9 hPa 0.0 l/m 2.9 km/h (1 Bft) N-NW 0.00 h 0 W/m -2.2 C -2.1 C 5.2 km/h (1 Bft)
Min-Datum _ 14.12.08 09.12.08 14.12.08 - 08.12.08 - - - 14.12.08 14.12.08 08.12.08
_ Min-Zeit 08:00 14:14 14:15 - 00:00 - - - 06:42 07:30 00:00
Minimum _ -3.8 C 74 % 997.0 hPa - 0.0 km/h (0 Bft) - - - -4.8 C -5.9 C 0.0 km/h (0 Bft)
Max-Datum _ 09.12.08 08.12.08 08.12.08 10.12.08 14.12.08 - 08.12.08 12.12.08 08.12.08 09.12.08 13.12.08
_ Max-Zeit 14:11 09:53 00:15 16:01 12:30 - 11:14 11:34 10:40 14:11 19:58
Maximum _ 4.1 C 100 % 1029.6 hPa 1.4 l/m 13.9 km/h
O-SO (3 Bft)
- 0.02 h 436 W/m 2.1 C 4.1 C 19.1 km/h
NO (3 Bft)
Durchschnitt _ 0.2 C 92 % 1013.6 hPa #18.0 l/m 0.8 km/h (0 Bft) S-SO #10:22 h 76 W/m -1.0 C 0.1 C 1.9 km/h (1 Bft)
© Kaiko 2008